sensor_id;sensor_type;location;lat;lon;timestamp;temperature;humidity
20459;DHT22;10388;52.314;7.938;2023-02-08T00:00:26;-4.30;99.90
20459;DHT22;10388;52.314;7.938;2023-02-08T00:02:57;-4.30;99.90
20459;DHT22;10388;52.314;7.938;2023-02-08T00:05:28;-4.30;99.90
20459;DHT22;10388;52.314;7.938;2023-02-08T00:07:58;-4.30;99.90
20459;DHT22;10388;52.314;7.938;2023-02-08T00:10:29;-4.40;99.90
20459;DHT22;10388;52.314;7.938;2023-02-08T00:13:00;-4.40;99.90
20459;DHT22;10388;52.314;7.938;2023-02-08T00:15:30;-4.40;99.90
20459;DHT22;10388;52.314;7.938;2023-02-08T00:18:01;-4.40;99.90
20459;DHT22;10388;52.314;7.938;2023-02-08T00:20:31;-4.50;99.90
20459;DHT22;10388;52.314;7.938;2023-02-08T00:23:02;-4.40;99.90
20459;DHT22;10388;52.314;7.938;2023-02-08T00:25:33;-4.50;99.90
20459;DHT22;10388;52.314;7.938;2023-02-08T00:28:03;-4.50;99.90
20459;DHT22;10388;52.314;7.938;2023-02-08T00:30:34;-4.50;99.90
20459;DHT22;10388;52.314;7.938;2023-02-08T00:33:05;-4.50;99.90
20459;DHT22;10388;52.314;7.938;2023-02-08T00:35:35;-4.50;99.90
20459;DHT22;10388;52.314;7.938;2023-02-08T00:38:06;-4.50;99.90
20459;DHT22;10388;52.314;7.938;2023-02-08T00:40:37;-4.50;99.90
20459;DHT22;10388;52.314;7.938;2023-02-08T00:43:07;-4.50;99.90
20459;DHT22;10388;52.314;7.938;2023-02-08T00:45:38;-4.50;99.90
20459;DHT22;10388;52.314;7.938;2023-02-08T00:48:08;-4.60;99.90
20459;DHT22;10388;52.314;7.938;2023-02-08T00:50:39;-4.60;99.90
20459;DHT22;10388;52.314;7.938;2023-02-08T00:53:09;-4.50;99.90
20459;DHT22;10388;52.314;7.938;2023-02-08T00:55:40;-4.60;99.90
20459;DHT22;10388;52.314;7.938;2023-02-08T00:58:10;-4.60;99.90
20459;DHT22;10388;52.314;7.938;2023-02-08T01:08:55;-4.60;99.90
20459;DHT22;10388;52.314;7.938;2023-02-08T04:35:13;-5.60;99.90
20459;DHT22;10388;52.314;7.938;2023-02-08T04:37:44;-5.60;99.90
20459;DHT22;10388;52.314;7.938;2023-02-08T04:40:14;-5.60;99.90
20459;DHT22;10388;52.314;7.938;2023-02-08T04:42:45;-5.60;99.90
20459;DHT22;10388;52.314;7.938;2023-02-08T04:45:16;-5.60;99.90
20459;DHT22;10388;52.314;7.938;2023-02-08T04:47:46;-5.60;99.90
20459;DHT22;10388;52.314;7.938;2023-02-08T04:50:17;-5.60;99.90
20459;DHT22;10388;52.314;7.938;2023-02-08T04:52:47;-5.70;99.90
20459;DHT22;10388;52.314;7.938;2023-02-08T04:55:18;-5.70;99.90
20459;DHT22;10388;52.314;7.938;2023-02-08T04:57:48;-5.70;99.90
20459;DHT22;10388;52.314;7.938;2023-02-08T05:00:19;-5.70;99.90
20459;DHT22;10388;52.314;7.938;2023-02-08T05:02:55;-5.70;99.90
20459;DHT22;10388;52.314;7.938;2023-02-08T05:05:26;-5.70;99.90
20459;DHT22;10388;52.314;7.938;2023-02-08T05:07:58;-5.70;99.90
20459;DHT22;10388;52.314;7.938;2023-02-08T05:10:28;-5.70;99.90
20459;DHT22;10388;52.314;7.938;2023-02-08T05:12:59;-5.70;99.90
20459;DHT22;10388;52.314;7.938;2023-02-08T05:15:29;-5.70;99.90
20459;DHT22;10388;52.314;7.938;2023-02-08T05:18:00;-5.80;99.90
20459;DHT22;10388;52.314;7.938;2023-02-08T05:20:30;-5.70;99.90
20459;DHT22;10388;52.314;7.938;2023-02-08T05:23:02;-5.80;99.90
20459;DHT22;10388;52.314;7.938;2023-02-08T05:25:33;-5.80;99.90
20459;DHT22;10388;52.314;7.938;2023-02-08T05:28:04;-5.80;99.90
20459;DHT22;10388;52.314;7.938;2023-02-08T05:30:36;-5.80;99.90
20459;DHT22;10388;52.314;7.938;2023-02-08T05:33:07;-5.80;99.90
20459;DHT22;10388;52.314;7.938;2023-02-08T05:35:37;-5.80;99.90
20459;DHT22;10388;52.314;7.938;2023-02-08T05:38:08;-5.80;99.90
20459;DHT22;10388;52.314;7.938;2023-02-08T05:40:38;-5.80;99.90
20459;DHT22;10388;52.314;7.938;2023-02-08T05:43:10;-5.80;99.90
20459;DHT22;10388;52.314;7.938;2023-02-08T05:45:40;-5.90;99.90
20459;DHT22;10388;52.314;7.938;2023-02-08T05:48:11;-5.90;99.90
20459;DHT22;10388;52.314;7.938;2023-02-08T05:50:41;-5.90;99.90
20459;DHT22;10388;52.314;7.938;2023-02-08T05:53:12;-5.90;99.90
20459;DHT22;10388;52.314;7.938;2023-02-08T05:55:44;-5.90;99.90
20459;DHT22;10388;52.314;7.938;2023-02-08T05:58:15;-5.90;99.90
20459;DHT22;10388;52.314;7.938;2023-02-08T06:00:46;-5.90;99.90
20459;DHT22;10388;52.314;7.938;2023-02-08T06:03:17;-5.90;99.90
20459;DHT22;10388;52.314;7.938;2023-02-08T06:05:47;-5.90;99.90
20459;DHT22;10388;52.314;7.938;2023-02-08T06:08:18;-5.90;99.90
20459;DHT22;10388;52.314;7.938;2023-02-08T06:10:49;-5.90;99.90
20459;DHT22;10388;52.314;7.938;2023-02-08T06:13:19;-5.80;99.90
20459;DHT22;10388;52.314;7.938;2023-02-08T06:15:50;-5.80;99.90
20459;DHT22;10388;52.314;7.938;2023-02-08T06:18:20;-5.80;99.90
20459;DHT22;10388;52.314;7.938;2023-02-08T06:20:52;-5.80;99.90
20459;DHT22;10388;52.314;7.938;2023-02-08T06:23:23;-5.80;99.90
20459;DHT22;10388;52.314;7.938;2023-02-08T06:25:54;-5.80;99.90
20459;DHT22;10388;52.314;7.938;2023-02-08T06:28:24;-5.90;99.90
20459;DHT22;10388;52.314;7.938;2023-02-08T06:30:55;-5.90;99.90
20459;DHT22;10388;52.314;7.938;2023-02-08T06:33:25;-5.90;99.90
20459;DHT22;10388;52.314;7.938;2023-02-08T06:35:56;-5.90;99.90
20459;DHT22;10388;52.314;7.938;2023-02-08T06:38:26;-5.90;99.90
20459;DHT22;10388;52.314;7.938;2023-02-08T06:40:57;-5.90;99.90
20459;DHT22;10388;52.314;7.938;2023-02-08T06:43:28;-5.90;99.90
20459;DHT22;10388;52.314;7.938;2023-02-08T06:45:58;-6.00;99.90
20459;DHT22;10388;52.314;7.938;2023-02-08T06:48:30;-6.00;99.90
20459;DHT22;10388;52.314;7.938;2023-02-08T06:51:01;-6.00;99.90
20459;DHT22;10388;52.314;7.938;2023-02-08T06:53:31;-6.00;99.90
20459;DHT22;10388;52.314;7.938;2023-02-08T06:56:02;-5.90;99.90
20459;DHT22;10388;52.314;7.938;2023-02-08T06:58:32;-6.00;99.90
20459;DHT22;10388;52.314;7.938;2023-02-08T07:01:03;-5.90;99.90
20459;DHT22;10388;52.314;7.938;2023-02-08T07:03:34;-5.90;99.90
20459;DHT22;10388;52.314;7.938;2023-02-08T07:06:05;-5.90;99.90
20459;DHT22;10388;52.314;7.938;2023-02-08T07:08:40;-5.90;99.90
20459;DHT22;10388;52.314;7.938;2023-02-08T07:11:14;-5.90;99.90
20459;DHT22;10388;52.314;7.938;2023-02-08T07:13:49;-5.90;99.90
20459;DHT22;10388;52.314;7.938;2023-02-08T07:16:20;-5.90;99.90
20459;DHT22;10388;52.314;7.938;2023-02-08T07:18:50;-5.90;99.90
20459;DHT22;10388;52.314;7.938;2023-02-08T07:21:21;-5.80;99.90
20459;DHT22;10388;52.314;7.938;2023-02-08T07:23:52;-5.90;99.90
20459;DHT22;10388;52.314;7.938;2023-02-08T07:26:22;-5.80;99.90
20459;DHT22;10388;52.314;7.938;2023-02-08T07:28:53;-5.80;99.90
20459;DHT22;10388;52.314;7.938;2023-02-08T07:31:23;-5.70;99.90
20459;DHT22;10388;52.314;7.938;2023-02-08T07:33:54;-5.60;99.90
20459;DHT22;10388;52.314;7.938;2023-02-08T07:36:24;-5.50;99.90
20459;DHT22;10388;52.314;7.938;2023-02-08T07:38:55;-5.50;99.90
20459;DHT22;10388;52.314;7.938;2023-02-08T07:41:25;-5.40;99.90
20459;DHT22;10388;52.314;7.938;2023-02-08T07:43:58;-5.30;99.90
20459;DHT22;10388;52.314;7.938;2023-02-08T07:46:29;-5.20;99.90
20459;DHT22;10388;52.314;7.938;2023-02-08T07:48:59;-5.20;99.90
20459;DHT22;10388;52.314;7.938;2023-02-08T07:51:30;-5.10;99.90
20459;DHT22;10388;52.314;7.938;2023-02-08T07:54:01;-5.10;99.90
20459;DHT22;10388;52.314;7.938;2023-02-08T07:56:31;-5.00;99.90
20459;DHT22;10388;52.314;7.938;2023-02-08T07:59:02;-5.00;99.90
20459;DHT22;10388;52.314;7.938;2023-02-08T08:01:32;-4.90;99.90
20459;DHT22;10388;52.314;7.938;2023-02-08T08:04:03;-4.80;99.90
20459;DHT22;10388;52.314;7.938;2023-02-08T08:06:33;-4.70;99.90
20459;DHT22;10388;52.314;7.938;2023-02-08T08:09:04;-4.60;99.90
20459;DHT22;10388;52.314;7.938;2023-02-08T08:11:35;-4.40;99.90
20459;DHT22;10388;52.314;7.938;2023-02-08T08:14:05;-4.30;99.90
20459;DHT22;10388;52.314;7.938;2023-02-08T08:16:36;-4.20;99.90
20459;DHT22;10388;52.314;7.938;2023-02-08T08:19:06;-4.20;99.90
20459;DHT22;10388;52.314;7.938;2023-02-08T08:21:37;-4.10;99.90
20459;DHT22;10388;52.314;7.938;2023-02-08T08:24:08;-4.00;99.90
20459;DHT22;10388;52.314;7.938;2023-02-08T08:26:38;-3.90;99.90
20459;DHT22;10388;52.314;7.938;2023-02-08T08:29:09;-3.80;99.90
20459;DHT22;10388;52.314;7.938;2023-02-08T08:31:41;-3.70;99.90
20459;DHT22;10388;52.314;7.938;2023-02-08T08:34:12;-3.60;99.90
20459;DHT22;10388;52.314;7.938;2023-02-08T08:36:42;-3.50;99.90
20459;DHT22;10388;52.314;7.938;2023-02-08T08:39:13;-3.30;99.90
20459;DHT22;10388;52.314;7.938;2023-02-08T08:41:44;-3.30;99.90
20459;DHT22;10388;52.314;7.938;2023-02-08T08:44:14;-3.10;99.90
20459;DHT22;10388;52.314;7.938;2023-02-08T08:46:45;-2.90;99.90
20459;DHT22;10388;52.314;7.938;2023-02-08T08:49:16;-2.70;99.90
20459;DHT22;10388;52.314;7.938;2023-02-08T08:51:46;-2.60;99.90
20459;DHT22;10388;52.314;7.938;2023-02-08T08:54:17;-2.60;99.90
20459;DHT22;10388;52.314;7.938;2023-02-08T08:56:48;-2.60;99.90
20459;DHT22;10388;52.314;7.938;2023-02-08T08:59:19;-2.40;99.90
20459;DHT22;10388;52.314;7.938;2023-02-08T09:01:49;-2.30;99.90
20459;DHT22;10388;52.314;7.938;2023-02-08T09:04:20;-2.20;99.90
20459;DHT22;10388;52.314;7.938;2023-02-08T09:06:52;-2.20;99.90
20459;DHT22;10388;52.314;7.938;2023-02-08T09:09:23;-2.10;99.90
20459;DHT22;10388;52.314;7.938;2023-02-08T09:11:54;-2.00;99.90
20459;DHT22;10388;52.314;7.938;2023-02-08T09:14:24;-1.90;99.90
20459;DHT22;10388;52.314;7.938;2023-02-08T09:16:55;-1.70;99.90
20459;DHT22;10388;52.314;7.938;2023-02-08T09:19:25;-1.70;99.90
20459;DHT22;10388;52.314;7.938;2023-02-08T09:21:57;-1.60;99.90
20459;DHT22;10388;52.314;7.938;2023-02-08T09:24:29;-1.40;99.90
20459;DHT22;10388;52.314;7.938;2023-02-08T09:27:00;-1.40;99.90
20459;DHT22;10388;52.314;7.938;2023-02-08T09:29:31;-1.30;99.90
20459;DHT22;10388;52.314;7.938;2023-02-08T09:32:03;-1.30;99.90
20459;DHT22;10388;52.314;7.938;2023-02-08T09:34:33;-1.20;99.90
20459;DHT22;10388;52.314;7.938;2023-02-08T09:37:04;-1.10;99.90
20459;DHT22;10388;52.314;7.938;2023-02-08T09:39:36;-0.80;99.90
20459;DHT22;10388;52.314;7.938;2023-02-08T09:42:25;-0.60;99.90
20459;DHT22;10388;52.314;7.938;2023-02-08T09:50:55;-0.20;99.90
20459;DHT22;10388;52.314;7.938;2023-02-08T09:53:40;-0.20;99.90
20459;DHT22;10388;52.314;7.938;2023-02-08T09:56:15;-0.30;99.90
20459;DHT22;10388;52.314;7.938;2023-02-08T09:58:51;-0.20;99.90
20459;DHT22;10388;52.314;7.938;2023-02-08T10:01:26;-0.10;99.90
20459;DHT22;10388;52.314;7.938;2023-02-08T10:04:05;0.00;99.90
20459;DHT22;10388;52.314;7.938;2023-02-08T10:06:37;0.10;99.90
20459;DHT22;10388;52.314;7.938;2023-02-08T10:09:10;0.10;99.90
20459;DHT22;10388;52.314;7.938;2023-02-08T10:11:55;0.20;99.90
20459;DHT22;10388;52.314;7.938;2023-02-08T10:14:47;0.30;99.90
20459;DHT22;10388;52.314;7.938;2023-02-08T10:26:12;0.80;99.90
20459;DHT22;10388;52.314;7.938;2023-02-08T10:35:09;1.20;99.90
20459;DHT22;10388;52.314;7.938;2023-02-08T10:37:42;1.40;99.90
20459;DHT22;10388;52.314;7.938;2023-02-08T10:51:33;1.80;99.90
20459;DHT22;10388;52.314;7.938;2023-02-08T10:54:04;1.80;99.90
20459;DHT22;10388;52.314;7.938;2023-02-08T10:56:45;1.90;99.90
20459;DHT22;10388;52.314;7.938;2023-02-08T10:59:20;2.10;99.90
20459;DHT22;10388;52.314;7.938;2023-02-08T11:01:52;2.10;99.90
20459;DHT22;10388;52.314;7.938;2023-02-08T11:04:24;2.30;99.90
20459;DHT22;10388;52.314;7.938;2023-02-08T11:06:54;2.40;99.90
20459;DHT22;10388;52.314;7.938;2023-02-08T11:09:31;2.60;99.90
20459;DHT22;10388;52.314;7.938;2023-02-08T11:12:02;2.70;99.90
20459;DHT22;10388;52.314;7.938;2023-02-08T11:14:38;2.90;99.90
20459;DHT22;10388;52.314;7.938;2023-02-08T11:17:24;2.90;99.90
20459;DHT22;10388;52.314;7.938;2023-02-08T11:19:55;3.00;99.90
20459;DHT22;10388;52.314;7.938;2023-02-08T11:22:28;3.00;99.90
20459;DHT22;10388;52.314;7.938;2023-02-08T11:25:06;3.10;99.90
20459;DHT22;10388;52.314;7.938;2023-02-08T11:27:37;3.30;99.90
20459;DHT22;10388;52.314;7.938;2023-02-08T11:32:46;3.40;99.90
20459;DHT22;10388;52.314;7.938;2023-02-08T11:37:55;3.60;99.90
20459;DHT22;10388;52.314;7.938;2023-02-08T11:40:36;3.60;99.90
20459;DHT22;10388;52.314;7.938;2023-02-08T11:43:24;3.70;99.90
20459;DHT22;10388;52.314;7.938;2023-02-08T11:45:56;3.80;99.90
20459;DHT22;10388;52.314;7.938;2023-02-08T11:48:41;3.90;99.90
20459;DHT22;10388;52.314;7.938;2023-02-08T11:51:21;4.00;99.90
20459;DHT22;10388;52.314;7.938;2023-02-08T11:53:53;4.00;99.90
20459;DHT22;10388;52.314;7.938;2023-02-08T11:56:27;4.10;99.90
20459;DHT22;10388;52.314;7.938;2023-02-08T11:59:21;4.20;99.90
20459;DHT22;10388;52.314;7.938;2023-02-08T12:01:52;4.30;99.90
20459;DHT22;10388;52.314;7.938;2023-02-08T12:04:24;4.40;99.90
20459;DHT22;10388;52.314;7.938;2023-02-08T12:07:10;4.60;99.90
20459;DHT22;10388;52.314;7.938;2023-02-08T12:13:11;4.60;99.90
20459;DHT22;10388;52.314;7.938;2023-02-08T12:21:44;4.90;99.90
20459;DHT22;10388;52.314;7.938;2023-02-08T12:24:49;5.00;99.90
20459;DHT22;10388;52.314;7.938;2023-02-08T12:30:26;5.00;99.90
20459;DHT22;10388;52.314;7.938;2023-02-08T12:36:46;5.20;99.90
20459;DHT22;10388;52.314;7.938;2023-02-08T12:40:13;5.20;99.90
20459;DHT22;10388;52.314;7.938;2023-02-08T12:43:34;5.30;99.90
20459;DHT22;10388;52.314;7.938;2023-02-08T12:52:02;5.50;99.90
20459;DHT22;10388;52.314;7.938;2023-02-08T12:54:41;5.60;99.90
20459;DHT22;10388;52.314;7.938;2023-02-08T12:57:16;5.70;99.90
20459;DHT22;10388;52.314;7.938;2023-02-08T13:00:05;5.80;99.90
20459;DHT22;10388;52.314;7.938;2023-02-08T13:02:46;5.80;99.90
20459;DHT22;10388;52.314;7.938;2023-02-08T13:05:29;5.90;99.90
20459;DHT22;10388;52.314;7.938;2023-02-08T13:08:07;5.90;99.90
20459;DHT22;10388;52.314;7.938;2023-02-08T13:10:45;6.00;99.90
20459;DHT22;10388;52.314;7.938;2023-02-08T13:13:25;6.00;99.90
20459;DHT22;10388;52.314;7.938;2023-02-08T13:16:00;6.00;99.90
20459;DHT22;10388;52.314;7.938;2023-02-08T13:18:45;6.10;99.90
20459;DHT22;10388;52.314;7.938;2023-02-08T13:21:21;6.10;99.90
20459;DHT22;10388;52.314;7.938;2023-02-08T13:23:53;6.20;99.90
20459;DHT22;10388;52.314;7.938;2023-02-08T13:26:32;6.40;99.90
20459;DHT22;10388;52.314;7.938;2023-02-08T13:29:03;6.40;99.90
20459;DHT22;10388;52.314;7.938;2023-02-08T13:31:38;6.30;99.90
20459;DHT22;10388;52.314;7.938;2023-02-08T13:34:19;6.40;99.90
20459;DHT22;10388;52.314;7.938;2023-02-08T13:36:55;6.50;99.90
20459;DHT22;10388;52.314;7.938;2023-02-08T13:39:35;6.40;99.90
20459;DHT22;10388;52.314;7.938;2023-02-08T13:42:17;6.50;99.90
20459;DHT22;10388;52.314;7.938;2023-02-08T13:44:51;6.50;99.90
20459;DHT22;10388;52.314;7.938;2023-02-08T13:47:27;6.50;99.90
20459;DHT22;10388;52.314;7.938;2023-02-08T13:50:01;6.50;99.90
20459;DHT22;10388;52.314;7.938;2023-02-08T13:58:04;6.60;99.90
20459;DHT22;10388;52.314;7.938;2023-02-08T14:03:29;6.70;99.90
20459;DHT22;10388;52.314;7.938;2023-02-08T14:08:53;6.70;99.90
20459;DHT22;10388;52.314;7.938;2023-02-08T14:11:45;6.60;99.90
20459;DHT22;10388;52.314;7.938;2023-02-08T14:14:24;6.70;99.90
20459;DHT22;10388;52.314;7.938;2023-02-08T14:20:05;6.70;99.90
20459;DHT22;10388;52.314;7.938;2023-02-08T14:22:38;6.70;99.90
20459;DHT22;10388;52.314;7.938;2023-02-08T14:25:19;6.70;99.90
20459;DHT22;10388;52.314;7.938;2023-02-08T14:27:54;6.70;99.90
20459;DHT22;10388;52.314;7.938;2023-02-08T14:30:31;6.80;99.90
20459;DHT22;10388;52.314;7.938;2023-02-08T14:35:40;6.60;99.90
20459;DHT22;10388;52.314;7.938;2023-02-08T14:40:58;6.60;99.90
20459;DHT22;10388;52.314;7.938;2023-02-08T14:43:34;6.50;99.90
20459;DHT22;10388;52.314;7.938;2023-02-08T14:49:16;6.40;99.90
20459;DHT22;10388;52.314;7.938;2023-02-08T14:52:02;6.40;99.90
20459;DHT22;10388;52.314;7.938;2023-02-08T14:57:24;6.40;99.90
20459;DHT22;10388;52.314;7.938;2023-02-08T14:59:58;6.40;99.90
20459;DHT22;10388;52.314;7.938;2023-02-08T15:02:29;6.40;99.90
20459;DHT22;10388;52.314;7.938;2023-02-08T15:05:01;6.30;99.90
20459;DHT22;10388;52.314;7.938;2023-02-08T15:10:22;6.30;99.90
20459;DHT22;10388;52.314;7.938;2023-02-08T15:12:56;6.20;99.90
20459;DHT22;10388;52.314;7.938;2023-02-08T15:15:41;6.20;99.90
20459;DHT22;10388;52.314;7.938;2023-02-08T15:18:27;6.00;99.90
20459;DHT22;10388;52.314;7.938;2023-02-08T15:21:12;6.00;99.90
20459;DHT22;10388;52.314;7.938;2023-02-08T15:24:00;6.00;99.90
20459;DHT22;10388;52.314;7.938;2023-02-08T15:26:31;5.90;99.90
20459;DHT22;10388;52.314;7.938;2023-02-08T15:29:01;5.80;99.90
20459;DHT22;10388;52.314;7.938;2023-02-08T15:31:32;5.80;99.90
20459;DHT22;10388;52.314;7.938;2023-02-08T15:34:03;5.70;99.90
20459;DHT22;10388;52.314;7.938;2023-02-08T15:36:35;5.60;99.90
20459;DHT22;10388;52.314;7.938;2023-02-08T15:42:21;5.50;99.90
20459;DHT22;10388;52.314;7.938;2023-02-08T15:44:52;5.50;99.90
20459;DHT22;10388;52.314;7.938;2023-02-08T15:49:53;5.30;99.90
20459;DHT22;10388;52.314;7.938;2023-02-08T15:52:28;5.20;99.90
20459;DHT22;10388;52.314;7.938;2023-02-08T15:54:59;5.10;99.90
20459;DHT22;10388;52.314;7.938;2023-02-08T15:57:43;5.00;99.90
20459;DHT22;10388;52.314;7.938;2023-02-08T16:00:35;5.00;99.90
20459;DHT22;10388;52.314;7.938;2023-02-08T16:03:14;4.80;99.90
20459;DHT22;10388;52.314;7.938;2023-02-08T16:05:58;4.70;99.90
20459;DHT22;10388;52.314;7.938;2023-02-08T16:08:35;4.60;99.90
20459;DHT22;10388;52.314;7.938;2023-02-08T16:13:56;4.40;99.90
20459;DHT22;10388;52.314;7.938;2023-02-08T16:16:37;4.30;99.90
20459;DHT22;10388;52.314;7.938;2023-02-08T16:19:28;4.10;99.90
20459;DHT22;10388;52.314;7.938;2023-02-08T16:22:18;4.00;99.90
20459;DHT22;10388;52.314;7.938;2023-02-08T16:24:52;3.90;99.90
20459;DHT22;10388;52.314;7.938;2023-02-08T16:27:25;3.80;99.90
20459;DHT22;10388;52.314;7.938;2023-02-08T16:29:56;3.70;99.90
20459;DHT22;10388;52.314;7.938;2023-02-08T16:32:30;3.60;99.90
20459;DHT22;10388;52.314;7.938;2023-02-08T16:35:27;3.50;99.90
20459;DHT22;10388;52.314;7.938;2023-02-08T16:38:00;3.50;99.90
20459;DHT22;10388;52.314;7.938;2023-02-08T16:40:52;3.30;99.90
20459;DHT22;10388;52.314;7.938;2023-02-08T16:46:19;3.20;99.90
20459;DHT22;10388;52.314;7.938;2023-02-08T16:48:55;3.10;99.90
20459;DHT22;10388;52.314;7.938;2023-02-08T16:51:28;3.00;99.90
20459;DHT22;10388;52.314;7.938;2023-02-08T16:54:05;2.90;99.90
20459;DHT22;10388;52.314;7.938;2023-02-08T16:56:37;2.90;99.90
20459;DHT22;10388;52.314;7.938;2023-02-08T16:59:10;2.80;99.90
20459;DHT22;10388;52.314;7.938;2023-02-08T17:01:42;2.70;99.90
20459;DHT22;10388;52.314;7.938;2023-02-08T17:04:17;2.60;99.90
20459;DHT22;10388;52.314;7.938;2023-02-08T17:06:48;2.50;99.90
20459;DHT22;10388;52.314;7.938;2023-02-08T17:09:19;2.50;99.90
20459;DHT22;10388;52.314;7.938;2023-02-08T17:11:49;2.40;99.90
20459;DHT22;10388;52.314;7.938;2023-02-08T17:14:20;2.30;99.90
20459;DHT22;10388;52.314;7.938;2023-02-08T17:16:50;2.30;99.90
20459;DHT22;10388;52.314;7.938;2023-02-08T17:19:21;2.30;99.90
20459;DHT22;10388;52.314;7.938;2023-02-08T17:21:51;2.30;99.90
20459;DHT22;10388;52.314;7.938;2023-02-08T17:24:22;2.10;99.90
20459;DHT22;10388;52.314;7.938;2023-02-08T17:26:53;2.10;99.90
20459;DHT22;10388;52.314;7.938;2023-02-08T17:29:24;2.00;99.90
20459;DHT22;10388;52.314;7.938;2023-02-08T17:31:54;1.90;99.90
20459;DHT22;10388;52.314;7.938;2023-02-08T17:34:25;1.90;99.90
20459;DHT22;10388;52.314;7.938;2023-02-08T17:36:55;1.80;99.90
20459;DHT22;10388;52.314;7.938;2023-02-08T17:39:26;1.70;99.90
20459;DHT22;10388;52.314;7.938;2023-02-08T17:41:56;1.60;99.90
20459;DHT22;10388;52.314;7.938;2023-02-08T17:44:27;1.50;99.90
20459;DHT22;10388;52.314;7.938;2023-02-08T17:46:58;1.40;99.90
20459;DHT22;10388;52.314;7.938;2023-02-08T17:49:29;1.40;99.90
20459;DHT22;10388;52.314;7.938;2023-02-08T17:51:59;1.40;99.90
20459;DHT22;10388;52.314;7.938;2023-02-08T17:54:30;1.30;99.90
20459;DHT22;10388;52.314;7.938;2023-02-08T17:57:00;1.20;99.90
20459;DHT22;10388;52.314;7.938;2023-02-08T17:59:32;1.10;99.90
20459;DHT22;10388;52.314;7.938;2023-02-08T18:02:02;1.00;99.90
20459;DHT22;10388;52.314;7.938;2023-02-08T18:04:33;0.90;99.90
20459;DHT22;10388;52.314;7.938;2023-02-08T18:07:03;0.80;99.90
20459;DHT22;10388;52.314;7.938;2023-02-08T18:09:34;0.80;99.90
20459;DHT22;10388;52.314;7.938;2023-02-08T18:12:05;0.70;99.90
20459;DHT22;10388;52.314;7.938;2023-02-08T18:14:36;0.60;99.90
20459;DHT22;10388;52.314;7.938;2023-02-08T18:17:08;0.50;99.90
20459;DHT22;10388;52.314;7.938;2023-02-08T18:19:39;0.40;99.90
20459;DHT22;10388;52.314;7.938;2023-02-08T18:22:09;0.30;99.90
20459;DHT22;10388;52.314;7.938;2023-02-08T18:24:40;0.20;99.90
20459;DHT22;10388;52.314;7.938;2023-02-08T18:27:11;0.10;99.90
20459;DHT22;10388;52.314;7.938;2023-02-08T18:29:41;0.00;99.90
20459;DHT22;10388;52.314;7.938;2023-02-08T18:32:12;-0.10;99.90
20459;DHT22;10388;52.314;7.938;2023-02-08T18:34:42;-0.20;99.90
20459;DHT22;10388;52.314;7.938;2023-02-08T18:37:14;-0.20;99.90
20459;DHT22;10388;52.314;7.938;2023-02-08T18:39:45;-0.20;99.90
20459;DHT22;10388;52.314;7.938;2023-02-08T18:42:15;-0.30;99.90
20459;DHT22;10388;52.314;7.938;2023-02-08T18:44:46;-0.40;99.90
20459;DHT22;10388;52.314;7.938;2023-02-08T18:47:17;-0.40;99.90
20459;DHT22;10388;52.314;7.938;2023-02-08T18:49:52;-0.50;99.90
20459;DHT22;10388;52.314;7.938;2023-02-08T18:52:23;-0.60;99.90
20459;DHT22;10388;52.314;7.938;2023-02-08T18:54:54;-0.60;99.90
20459;DHT22;10388;52.314;7.938;2023-02-08T18:57:24;-0.60;99.90
20459;DHT22;10388;52.314;7.938;2023-02-08T18:59:55;-0.70;99.90
20459;DHT22;10388;52.314;7.938;2023-02-08T19:02:25;-0.70;99.90
20459;DHT22;10388;52.314;7.938;2023-02-08T19:04:56;-0.80;99.90
20459;DHT22;10388;52.314;7.938;2023-02-08T19:07:27;-0.90;99.90
20459;DHT22;10388;52.314;7.938;2023-02-08T19:09:57;-0.90;99.90
20459;DHT22;10388;52.314;7.938;2023-02-08T19:12:28;-0.90;99.90
20459;DHT22;10388;52.314;7.938;2023-02-08T19:14:59;-1.00;99.90
20459;DHT22;10388;52.314;7.938;2023-02-08T19:17:29;-1.00;99.90
20459;DHT22;10388;52.314;7.938;2023-02-08T19:20:00;-1.10;99.90
20459;DHT22;10388;52.314;7.938;2023-02-08T19:22:30;-1.10;99.90
20459;DHT22;10388;52.314;7.938;2023-02-08T19:25:01;-1.20;99.90
20459;DHT22;10388;52.314;7.938;2023-02-08T19:27:31;-1.20;99.90
20459;DHT22;10388;52.314;7.938;2023-02-08T19:30:03;-1.20;99.90
20459;DHT22;10388;52.314;7.938;2023-02-08T19:32:34;-1.20;99.90
20459;DHT22;10388;52.314;7.938;2023-02-08T19:35:05;-1.20;99.90
20459;DHT22;10388;52.314;7.938;2023-02-08T19:37:36;-1.20;99.90
20459;DHT22;10388;52.314;7.938;2023-02-08T19:40:07;-1.30;99.90
20459;DHT22;10388;52.314;7.938;2023-02-08T19:42:38;-1.40;99.90
20459;DHT22;10388;52.314;7.938;2023-02-08T19:45:12;-1.40;99.90
20459;DHT22;10388;52.314;7.938;2023-02-08T19:47:43;-1.60;99.90
20459;DHT22;10388;52.314;7.938;2023-02-08T19:50:14;-1.60;99.90
20459;DHT22;10388;52.314;7.938;2023-02-08T19:52:44;-1.60;99.90
20459;DHT22;10388;52.314;7.938;2023-02-08T19:55:15;-1.70;99.90
20459;DHT22;10388;52.314;7.938;2023-02-08T19:57:49;-1.70;99.90
20459;DHT22;10388;52.314;7.938;2023-02-08T20:00:19;-1.70;99.90
20459;DHT22;10388;52.314;7.938;2023-02-08T20:02:50;-1.80;99.90
20459;DHT22;10388;52.314;7.938;2023-02-08T20:05:21;-1.80;99.90
20459;DHT22;10388;52.314;7.938;2023-02-08T20:07:52;-1.90;99.90
20459;DHT22;10388;52.314;7.938;2023-02-08T20:10:22;-1.90;99.90
20459;DHT22;10388;52.314;7.938;2023-02-08T20:12:53;-1.90;99.90
20459;DHT22;10388;52.314;7.938;2023-02-08T20:15:23;-2.00;99.90
20459;DHT22;10388;52.314;7.938;2023-02-08T20:17:54;-2.00;99.90
20459;DHT22;10388;52.314;7.938;2023-02-08T20:20:28;-2.00;99.90
20459;DHT22;10388;52.314;7.938;2023-02-08T20:23:03;-2.00;99.90
20459;DHT22;10388;52.314;7.938;2023-02-08T20:25:34;-2.10;99.90
20459;DHT22;10388;52.314;7.938;2023-02-08T20:28:08;-2.10;99.90
20459;DHT22;10388;52.314;7.938;2023-02-08T20:30:39;-2.20;99.90
20459;DHT22;10388;52.314;7.938;2023-02-08T20:33:10;-2.30;99.90
20459;DHT22;10388;52.314;7.938;2023-02-08T20:35:40;-2.30;99.90
20459;DHT22;10388;52.314;7.938;2023-02-08T20:38:11;-2.30;99.90
20459;DHT22;10388;52.314;7.938;2023-02-08T20:40:41;-2.40;99.90
20459;DHT22;10388;52.314;7.938;2023-02-08T20:43:15;-2.40;99.90
20459;DHT22;10388;52.314;7.938;2023-02-08T20:45:45;-2.40;99.90
20459;DHT22;10388;52.314;7.938;2023-02-08T20:48:16;-2.40;99.90
20459;DHT22;10388;52.314;7.938;2023-02-08T20:50:47;-2.40;99.90
20459;DHT22;10388;52.314;7.938;2023-02-08T20:53:17;-2.50;99.90
20459;DHT22;10388;52.314;7.938;2023-02-08T20:55:48;-2.50;99.90
20459;DHT22;10388;52.314;7.938;2023-02-08T20:58:18;-2.50;99.90
20459;DHT22;10388;52.314;7.938;2023-02-08T21:00:49;-2.60;99.90
20459;DHT22;10388;52.314;7.938;2023-02-08T21:03:19;-2.50;99.90
20459;DHT22;10388;52.314;7.938;2023-02-08T21:05:50;-2.60;99.90
20459;DHT22;10388;52.314;7.938;2023-02-08T21:08:20;-2.70;99.90
20459;DHT22;10388;52.314;7.938;2023-02-08T21:10:51;-2.70;99.90
20459;DHT22;10388;52.314;7.938;2023-02-08T21:13:21;-2.70;99.90
20459;DHT22;10388;52.314;7.938;2023-02-08T21:15:55;-2.70;99.90
20459;DHT22;10388;52.314;7.938;2023-02-08T21:18:25;-2.70;99.90
20459;DHT22;10388;52.314;7.938;2023-02-08T21:20:56;-2.80;99.90
20459;DHT22;10388;52.314;7.938;2023-02-08T21:23:27;-2.80;99.90
20459;DHT22;10388;52.314;7.938;2023-02-08T21:25:58;-2.80;99.90